Time;durP1;ratioP1;P1;durP2;ratioP2;P2;SDS_P1;SDS_P2;PMS_P1;PMS_P2;Temp;Humidity;BMP_temperature;BMP_pressure;BME280_temperature;BME280_humidity;BME280_pressure;Samples;Min_cycle;Max_cycle;Signal;HPM_P1;HPM_P2
2023/01/20 00:01:33;;;;;;;5.13;4.33;;;21.40;53.90;;;;;;4932661;29;20498;-67
2023/01/20 00:04:01;;;;;;;4.70;4.40;;;21.40;53.90;;;;;;4931281;29;20477;-67
2023/01/20 00:06:30;;;;;;;4.30;4.00;;;21.40;53.90;;;;;;4931620;29;21023;-67
2023/01/20 00:09:00;;;;;;;5.23;4.73;;;21.40;53.90;;;;;;4935097;29;20500;-67
2023/01/20 00:11:30;;;;;;;4.90;4.53;;;21.40;53.90;;;;;;4929807;29;20894;-70
2023/01/20 00:14:00;;;;;;;5.43;4.93;;;21.40;53.90;;;;;;4935163;29;20563;-68
2023/01/20 00:16:30;;;;;;;4.87;4.47;;;21.40;53.90;;;;;;4935896;29;20585;-67
2023/01/20 00:18:59;;;;;;;4.20;3.80;;;21.40;53.90;;;;;;4932659;29;20480;-68
2023/01/20 00:21:27;;;;;;;4.20;3.90;;;21.40;53.90;;;;;;4935212;29;20447;-67
2023/01/20 00:23:55;;;;;;;4.87;4.47;;;21.40;53.90;;;;;;4935231;29;20485;-68
2023/01/20 00:26:24;;;;;;;4.80;4.40;;;21.40;53.90;;;;;;4935218;29;20428;-68
2023/01/20 00:28:56;;;;;;;4.50;4.00;;;21.40;53.90;;;;;;4920842;29;20567;-67
2023/01/20 00:31:26;;;;;;;4.50;4.10;;;21.40;53.90;;;;;;4923184;29;20464;-67
2023/01/20 00:33:56;;;;;;;4.13;3.83;;;21.40;53.90;;;;;;4931595;29;20471;-67
2023/01/20 00:36:25;;;;;;;4.53;4.23;;;21.40;53.80;;;;;;4930937;29;20467;-67
2023/01/20 00:38:53;;;;;;;5.30;4.73;;;21.40;53.80;;;;;;4933357;29;20664;-67
2023/01/20 00:41:22;;;;;;;5.13;4.70;;;21.40;53.80;;;;;;4928433;29;20843;-67
2023/01/20 00:43:50;;;;;;;4.17;3.87;;;21.40;53.80;;;;;;4932053;29;20462;-67
2023/01/20 00:46:21;;;;;;;4.90;4.50;;;21.40;53.80;;;;;;4925553;29;20505;-67
2023/01/20 00:48:50;;;;;;;4.37;4.07;;;21.40;53.70;;;;;;4927905;29;20909;-68
2023/01/20 00:51:18;;;;;;;4.70;4.33;;;21.40;53.70;;;;;;4931492;29;20463;-67
2023/01/20 00:53:46;;;;;;;4.80;4.37;;;21.40;53.70;;;;;;4929649;29;20459;-67
2023/01/20 00:56:14;;;;;;;5.00;4.60;;;21.40;53.70;;;;;;4930884;29;20462;-67
2023/01/20 00:58:43;;;;;;;4.80;4.47;;;21.40;53.70;;;;;;4932137;29;20520;-67
2023/01/20 01:01:12;;;;;;;4.50;4.10;;;21.40;53.70;;;;;;4929919;29;20458;-68
2023/01/20 01:03:42;;;;;;;5.30;4.87;;;21.30;53.70;;;;;;4926194;29;20457;-68
2023/01/20 01:06:13;;;;;;;4.43;4.03;;;21.30;53.70;;;;;;4929520;29;20462;-67
2023/01/20 01:08:41;;;;;;;4.13;3.73;;;21.30;53.70;;;;;;4930456;29;20944;-67
2023/01/20 01:11:10;;;;;;;5.47;4.97;;;21.30;53.70;;;;;;4927409;29;20572;-67
2023/01/20 01:13:38;;;;;;;5.20;4.30;;;21.30;53.60;;;;;;4932225;29;20518;-68
2023/01/20 01:16:11;;;;;;;5.00;4.60;;;21.40;53.60;;;;;;4928620;29;20479;-67
2023/01/20 01:18:42;;;;;;;4.40;4.00;;;21.30;53.60;;;;;;4929126;29;20911;-67
2023/01/20 01:21:12;;;;;;;3.63;3.43;;;21.40;53.60;;;;;;4927007;29;20498;-67
2023/01/20 01:23:40;;;;;;;4.60;4.20;;;21.30;53.60;;;;;;4930985;29;20517;-68
2023/01/20 01:26:08;;;;;;;4.80;4.40;;;21.30;53.60;;;;;;4932389;29;20477;-68
2023/01/20 01:28:37;;;;;;;4.37;4.07;;;21.30;53.60;;;;;;4926986;29;20464;-67
2023/01/20 01:31:07;;;;;;;4.27;3.97;;;21.40;53.60;;;;;;4925036;29;20447;-67
2023/01/20 01:33:36;;;;;;;4.53;4.13;;;21.40;53.50;;;;;;4930069;29;20459;-68
2023/01/20 01:36:07;;;;;;;4.20;3.80;;;21.40;53.50;;;;;;4929029;29;20471;-68
2023/01/20 01:38:35;;;;;;;4.10;3.80;;;21.40;53.50;;;;;;4927756;29;20805;-68
2023/01/20 01:41:03;;;;;;;4.37;4.07;;;21.40;53.50;;;;;;4931140;29;20495;-67
2023/01/20 01:43:35;;;;;;;3.70;3.40;;;21.40;53.50;;;;;;4929224;29;20459;-68
2023/01/20 01:46:04;;;;;;;4.80;4.47;;;21.40;53.50;;;;;;4932186;29;20529;-68
2023/01/20 01:48:36;;;;;;;4.20;3.90;;;21.40;53.50;;;;;;4933304;29;20462;-67
2023/01/20 01:51:11;;;;;;;4.97;4.57;;;21.40;53.50;;;;;;4932745;29;20974;-68
2023/01/20 01:53:42;;;;;;;4.00;3.60;;;21.40;53.50;;;;;;4924914;29;20490;-67
2023/01/20 01:56:11;;;;;;;4.60;4.20;;;21.40;53.40;;;;;;4930739;29;20475;-68
2023/01/20 01:58:44;;;;;;;4.60;3.60;;;21.40;53.40;;;;;;4927000;29;20570;-67
2023/01/20 02:01:13;;;;;;;4.17;3.87;;;21.40;53.50;;;;;;4927663;29;20464;-69
2023/01/20 02:03:49;;;;;;;3.73;3.43;;;21.40;53.50;;;;;;4931609;29;20456;-68
2023/01/20 02:06:19;;;;;;;3.97;3.57;;;21.40;53.40;;;;;;4930153;29;20466;-68
2023/01/20 02:08:48;;;;;;;4.13;3.83;;;21.40;53.40;;;;;;4924714;29;20460;-68
2023/01/20 02:11:16;;;;;;;4.60;4.10;;;21.40;53.40;;;;;;4930275;29;20534;-67
2023/01/20 02:13:45;;;;;;;3.97;3.67;;;21.40;53.40;;;;;;4932915;29;20918;-68
2023/01/20 02:16:18;;;;;;;5.40;4.90;;;21.40;53.40;;;;;;4934054;29;20432;-68
2023/01/20 02:19:00;;;;;;;4.43;4.03;;;21.40;53.40;;;;;;4932912;29;20486;-67
2023/01/20 02:22:08;;;;;;;4.30;4.00;;;21.40;53.40;;;;;;4933989;29;20531;-67
2023/01/20 02:25:16;;;;;;;4.00;3.60;;;21.40;53.40;;;;;;4930476;29;20487;-67
2023/01/20 02:28:16;;;;;;;3.80;3.50;;;21.40;53.40;;;;;;4924177;29;20558;-67
2023/01/20 02:30:58;;;;;;;3.87;3.50;;;21.40;53.40;;;;;;4931907;29;20995;-67
2023/01/20 02:33:32;;;;;;;4.10;3.80;;;21.40;53.40;;;;;;4930942;29;20874;-67
2023/01/20 02:36:06;;;;;;;3.53;3.23;;;21.40;53.30;;;;;;4936365;29;20472;-67
2023/01/20 02:38:43;;;;;;;3.60;3.30;;;21.40;53.30;;;;;;4936636;29;20506;-67
2023/01/20 02:41:17;;;;;;;4.00;3.60;;;21.40;53.30;;;;;;4932905;29;20926;-67
2023/01/20 02:43:53;;;;;;;3.80;3.50;;;21.40;53.30;;;;;;4935166;29;20847;-67
2023/01/20 02:46:25;;;;;;;3.83;3.53;;;21.40;53.30;;;;;;4932906;29;20799;-67
2023/01/20 02:49:03;;;;;;;4.40;4.00;;;21.40;53.30;;;;;;4933364;29;20939;-67
2023/01/20 02:51:39;;;;;;;4.10;3.70;;;21.40;53.30;;;;;;4937286;29;20915;-67
2023/01/20 02:54:13;;;;;;;3.80;3.50;;;21.40;53.30;;;;;;4936664;29;20453;-67
2023/01/20 02:56:42;;;;;;;4.23;3.83;;;21.40;53.30;;;;;;4934477;29;20542;-67
2023/01/20 02:59:12;;;;;;;4.40;4.00;;;21.40;53.30;;;;;;4932515;29;20561;-67
2023/01/20 03:01:47;;;;;;;3.73;3.43;;;21.40;53.20;;;;;;4932752;29;21003;-68
2023/01/20 03:04:21;;;;;;;4.40;4.00;;;21.40;53.20;;;;;;4920626;29;20545;-67
2023/01/20 03:06:54;;;;;;;3.43;3.10;;;21.40;53.20;;;;;;4933618;29;20469;-67
2023/01/20 03:09:28;;;;;;;3.83;3.53;;;21.40;53.20;;;;;;4934272;29;20545;-67
2023/01/20 03:12:00;;;;;;;3.80;3.50;;;21.40;53.20;;;;;;4936872;29;20549;-68
2023/01/20 03:14:29;;;;;;;3.90;3.60;;;21.40;53.20;;;;;;4934675;29;20600;-67
2023/01/20 03:16:57;;;;;;;4.00;3.70;;;21.40;53.20;;;;;;4933993;29;20550;-67
2023/01/20 03:19:26;;;;;;;3.90;3.70;;;21.40;53.20;;;;;;4933378;29;20854;-67
2023/01/20 03:21:54;;;;;;;3.03;2.83;;;21.40;53.20;;;;;;4927916;29;20581;-67
2023/01/20 03:24:25;;;;;;;4.20;3.83;;;21.40;53.20;;;;;;4932833;29;20463;-67
2023/01/20 03:26:54;;;;;;;3.60;3.40;;;21.40;53.20;;;;;;4934435;29;20555;-67
2023/01/20 03:29:22;;;;;;;3.50;3.20;;;21.40;53.20;;;;;;4930295;29;20545;-67
2023/01/20 03:31:54;;;;;;;3.30;3.10;;;21.40;53.20;;;;;;4931583;29;20464;-67
2023/01/20 03:34:24;;;;;;;3.97;3.67;;;21.40;53.20;;;;;;4933134;29;20557;-67
2023/01/20 03:36:55;;;;;;;3.70;3.40;;;21.40;53.20;;;;;;4930894;29;20471;-68
2023/01/20 03:39:25;;;;;;;3.97;3.67;;;21.40;53.20;;;;;;4931176;29;21039;-67
2023/01/20 03:42:01;;;;;;;4.50;4.10;;;21.40;53.20;;;;;;4931996;29;20956;-67
2023/01/20 03:44:41;;;;;;;3.77;3.53;;;21.40;53.20;;;;;;4928296;29;20489;-67
2023/01/20 03:47:17;;;;;;;4.50;4.10;;;21.40;53.20;;;;;;4932554;29;20570;-67
2023/01/20 03:49:51;;;;;;;4.90;4.50;;;21.40;53.20;;;;;;4935736;29;20434;-67
2023/01/20 03:52:29;;;;;;;3.83;3.43;;;21.40;53.20;;;;;;4936049;29;20526;-67
2023/01/20 03:55:20;;;;;;;3.43;3.23;;;21.30;53.20;;;;;;4932887;29;20520;-67
2023/01/20 03:57:54;;;;;;;4.27;3.63;;;21.30;53.20;;;;;;4931154;29;20530;-68
2023/01/20 04:00:25;;;;;;;3.70;3.40;;;21.30;53.20;;;;;;4932677;29;20472;-68
2023/01/20 04:02:58;;;;;;;4.13;3.73;;;21.30;53.20;;;;;;4925632;29;20554;-68
2023/01/20 04:05:28;;;;;;;3.67;3.47;;;21.30;53.10;;;;;;4932300;29;20463;-68
2023/01/20 04:08:02;;;;;;;4.10;3.57;;;21.30;53.20;;;;;;4933293;29;20527;-67
2023/01/20 04:10:32;;;;;;;4.00;3.70;;;21.30;53.20;;;;;;4931970;29;20497;-68
2023/01/20 04:13:01;;;;;;;3.97;3.67;;;21.30;53.20;;;;;;4935831;29;20886;-67
2023/01/20 04:15:32;;;;;;;3.70;3.40;;;21.30;53.20;;;;;;4935174;29;20479;-68
2023/01/20 04:18:12;;;;;;;3.30;3.00;;;21.30;53.20;;;;;;4932542;29;20459;-68
2023/01/20 04:20:40;;;;;;;3.70;3.50;;;21.30;53.20;;;;;;4934357;29;20491;-68
2023/01/20 04:23:16;;;;;;;3.77;3.47;;;21.30;53.10;;;;;;4931127;29;20588;-67
2023/01/20 04:25:45;;;;;;;3.23;3.00;;;21.30;53.10;;;;;;4930021;29;20507;-68
2023/01/20 04:28:13;;;;;;;3.00;2.80;;;21.30;53.10;;;;;;4935229;29;20934;-68
2023/01/20 04:30:41;;;;;;;3.43;3.20;;;21.30;53.10;;;;;;4932289;29;21013;-68
2023/01/20 04:33:10;;;;;;;3.30;3.00;;;21.30;53.10;;;;;;4935199;29;20425;-67
2023/01/20 04:35:38;;;;;;;3.30;3.00;;;21.30;53.10;;;;;;4926256;29;20458;-67
2023/01/20 04:38:06;;;;;;;3.87;3.27;;;21.30;53.10;;;;;;4927896;29;20798;-67
2023/01/20 04:40:35;;;;;;;3.50;3.20;;;21.30;53.10;;;;;;4932163;29;20530;-68
2023/01/20 04:43:04;;;;;;;3.33;3.03;;;21.30;53.10;;;;;;4932663;29;20902;-68
2023/01/20 04:45:32;;;;;;;3.53;3.20;;;21.30;53.10;;;;;;4929828;29;20458;-68
2023/01/20 04:48:00;;;;;;;3.43;3.13;;;21.30;53.10;;;;;;4929143;29;20463;-68
2023/01/20 04:50:28;;;;;;;3.30;3.10;;;21.30;53.10;;;;;;4929286;29;21197;-67
2023/01/20 04:52:56;;;;;;;3.23;3.03;;;21.30;53.10;;;;;;4934252;29;20559;-68
2023/01/20 04:55:27;;;;;;;3.00;2.80;;;21.30;53.10;;;;;;4932371;29;20466;-68
2023/01/20 04:57:57;;;;;;;3.53;3.23;;;21.30;53.00;;;;;;4931925;29;20538;-68
2023/01/20 05:00:25;;;;;;;2.67;2.47;;;21.30;53.10;;;;;;4931991;29;20470;-67
2023/01/20 05:02:56;;;;;;;3.13;2.93;;;21.30;53.10;;;;;;4934573;29;20502;-67
2023/01/20 05:05:24;;;;;;;2.60;2.40;;;21.30;53.10;;;;;;4930921;29;20462;-67
2023/01/20 05:07:53;;;;;;;3.20;3.00;;;21.30;53.10;;;;;;4926707;29;20841;-68
2023/01/20 05:10:22;;;;;;;2.93;2.73;;;21.30;53.00;;;;;;4932025;29;20551;-67
2023/01/20 05:12:50;;;;;;;3.00;2.80;;;21.30;53.00;;;;;;4930022;29;20480;-68
2023/01/20 05:15:19;;;;;;;3.27;3.03;;;21.40;53.00;;;;;;4931185;29;20526;-68
2023/01/20 05:17:47;;;;;;;3.17;2.97;;;21.30;53.00;;;;;;4926395;29;20935;-67
2023/01/20 05:20:17;;;;;;;3.00;2.80;;;21.30;53.00;;;;;;4931231;29;20865;-68
2023/01/20 05:22:46;;;;;;;3.27;3.00;;;21.30;53.00;;;;;;4930794;29;20463;-68
2023/01/20 05:25:14;;;;;;;2.60;2.50;;;21.30;53.00;;;;;;4929682;29;20538;-68
2023/01/20 05:27:43;;;;;;;2.70;2.50;;;21.30;53.00;;;;;;4931060;29;20544;-68
2023/01/20 05:30:12;;;;;;;3.50;2.63;;;21.30;53.00;;;;;;4925554;29;20458;-68
2023/01/20 05:32:42;;;;;;;2.93;2.70;;;21.30;53.10;;;;;;4928169;29;20451;-69
2023/01/20 05:35:10;;;;;;;3.23;2.93;;;21.30;53.20;;;;;;4924061;29;20478;-68
2023/01/20 05:37:38;;;;;;;2.60;2.43;;;21.30;53.30;;;;;;4924399;29;20470;-69
2023/01/20 05:40:08;;;;;;;2.70;2.50;;;21.30;53.50;;;;;;4919662;29;20997;-68
2023/01/20 05:42:36;;;;;;;3.47;3.17;;;21.30;53.60;;;;;;4930212;29;20490;-68
2023/01/20 05:45:05;;;;;;;2.70;2.50;;;21.30;53.70;;;;;;4927580;29;21671;-68
2023/01/20 05:47:34;;;;;;;2.93;2.60;;;21.40;53.80;;;;;;4933672;29;20510;-69
2023/01/20 05:50:03;;;;;;;3.40;2.70;;;21.40;53.80;;;;;;4924752;29;20581;-65
2023/01/20 05:52:32;;;;;;;2.83;2.63;;;21.40;53.80;;;;;;4925017;29;20546;-67
2023/01/20 05:55:00;;;;;;;3.13;2.83;;;21.40;53.80;;;;;;4922821;29;20575;-67
2023/01/20 05:57:28;;;;;;;2.70;2.50;;;21.40;53.80;;;;;;4924807;29;20543;-68
2023/01/20 05:59:56;;;;;;;2.77;2.57;;;21.40;53.80;;;;;;4926804;29;20594;-67
2023/01/20 06:02:24;;;;;;;3.67;2.80;;;21.40;53.80;;;;;;4929325;29;20459;-67
2023/01/20 06:04:54;;;;;;;2.50;2.30;;;21.40;53.80;;;;;;4927943;29;20459;-67
2023/01/20 06:07:24;;;;;;;2.80;2.60;;;21.40;53.90;;;;;;4933978;29;20455;-68
2023/01/20 06:09:52;;;;;;;4.53;2.97;;;21.40;54.00;;;;;;4927957;29;20504;-67
2023/01/20 06:12:20;;;;;;;3.90;3.20;;;21.40;54.10;;;;;;4920475;29;21041;-68
2023/01/20 06:14:48;;;;;;;2.73;2.53;;;21.40;54.10;;;;;;4927161;29;20957;-68
2023/01/20 06:17:17;;;;;;;3.50;3.20;;;21.40;54.10;;;;;;4925823;29;20470;-66
2023/01/20 06:19:45;;;;;;;3.70;2.60;;;21.40;54.20;;;;;;4922259;29;20475;-67
2023/01/20 06:22:14;;;;;;;3.23;3.03;;;21.40;54.20;;;;;;4926130;29;20557;-67
2023/01/20 06:24:44;;;;;;;3.40;3.10;;;21.30;54.20;;;;;;4925732;29;20551;-67
2023/01/20 06:27:12;;;;;;;4.63;2.80;;;21.30;54.20;;;;;;4921499;29;20572;-67
2023/01/20 06:29:40;;;;;;;3.03;2.40;;;21.30;54.20;;;;;;4943143;29;20454;-67
2023/01/20 06:32:09;;;;;;;2.80;2.60;;;21.30;54.30;;;;;;4926501;29;20954;-67
2023/01/20 06:34:37;;;;;;;4.80;2.57;;;21.30;54.30;;;;;;4923457;29;20456;-67
2023/01/20 06:37:05;;;;;;;2.57;2.37;;;21.30;54.30;;;;;;4933024;29;20930;-67
2023/01/20 06:39:33;;;;;;;3.23;2.40;;;21.30;54.40;;;;;;4935035;29;20939;-67
2023/01/20 06:42:02;;;;;;;2.87;2.40;;;21.30;54.50;;;;;;4932652;29;20594;-67
2023/01/20 06:44:32;;;;;;;3.00;2.80;;;21.30;54.50;;;;;;4933961;29;20502;-67
2023/01/20 06:47:00;;;;;;;2.30;2.10;;;21.30;54.50;;;;;;4931891;29;20456;-67
2023/01/20 06:49:28;;;;;;;2.33;2.13;;;21.30;54.60;;;;;;4935757;29;20930;-68
2023/01/20 06:51:57;;;;;;;2.77;2.53;;;21.30;54.50;;;;;;4934714;29;20979;-67
2023/01/20 06:54:26;;;;;;;3.07;2.77;;;21.30;54.60;;;;;;4930054;29;20465;-67
2023/01/20 06:56:54;;;;;;;2.63;2.40;;;21.30;54.70;;;;;;4932260;29;20947;-67
2023/01/20 06:59:23;;;;;;;5.17;2.27;;;21.30;54.80;;;;;;4927153;29;20975;-68
2023/01/20 07:01:52;;;;;;;2.70;2.47;;;21.30;54.90;;;;;;4932042;29;20504;-66
2023/01/20 07:04:20;;;;;;;3.40;3.10;;;21.30;54.90;;;;;;4932322;29;20534;-66
2023/01/20 07:06:49;;;;;;;3.67;2.50;;;21.30;54.90;;;;;;4935799;29;20486;-67
2023/01/20 07:09:17;;;;;;;2.60;2.40;;;21.30;55.00;;;;;;4931508;29;20545;-67
2023/01/20 07:11:45;;;;;;;2.83;2.60;;;21.40;55.20;;;;;;4928736;29;20813;-67
2023/01/20 07:14:13;;;;;;;4.30;2.50;;;21.40;55.10;;;;;;4923332;29;20502;-68
2023/01/20 07:16:42;;;;;;;4.33;3.20;;;21.40;55.30;;;;;;4918931;29;20840;-67
2023/01/20 07:19:12;;;;;;;4.53;3.07;;;21.40;55.80;;;;;;4924310;29;20559;-67
2023/01/20 07:21:40;;;;;;;3.93;3.50;;;21.40;56.10;;;;;;4928648;29;21335;-67
2023/01/20 07:24:09;;;;;;;4.77;3.10;;;21.40;56.10;;;;;;4927909;29;20464;-67
2023/01/20 07:26:37;;;;;;;3.50;3.20;;;21.40;56.00;;;;;;4935465;29;20454;-67
2023/01/20 07:29:05;;;;;;;4.03;2.90;;;21.40;55.90;;;;;;4931021;29;20475;-67
2023/01/20 07:31:34;;;;;;;3.80;2.90;;;21.40;55.80;;;;;;4927550;29;20473;-66
2023/01/20 07:34:03;;;;;;;5.50;3.13;;;21.40;55.80;;;;;;4932861;29;20466;-66
2023/01/20 07:36:31;;;;;;;6.67;3.20;;;21.40;56.20;;;;;;4930609;29;20481;-66
2023/01/20 07:39:00;;;;;;;3.97;2.50;;;21.40;56.70;;;;;;4929870;29;20464;-66
2023/01/20 07:41:28;;;;;;;4.40;3.23;;;21.40;57.30;;;;;;4926064;29;20532;-65
2023/01/20 07:43:56;;;;;;;9.33;3.40;;;21.50;57.90;;;;;;4927086;29;20579;-66
2023/01/20 07:46:24;;;;;;;6.27;3.60;;;21.50;58.10;;;;;;4929191;29;20464;-66
2023/01/20 07:48:52;;;;;;;4.47;3.10;;;21.50;58.20;;;;;;4929383;29;20484;-67
2023/01/20 07:51:22;;;;;;;3.93;3.00;;;21.60;58.30;;;;;;4929795;29;20501;-67
2023/01/20 07:53:51;;;;;;;6.30;2.30;;;21.60;58.50;;;;;;4931237;29;20551;-66
2023/01/20 07:56:22;;;;;;;3.77;2.93;;;21.60;58.50;;;;;;4927245;29;20497;-66
2023/01/20 07:58:50;;;;;;;4.10;2.93;;;21.60;58.50;;;;;;4923761;29;22415;-66
2023/01/20 08:01:20;;;;;;;5.20;3.20;;;21.60;58.50;;;;;;4930483;29;20591;-66
2023/01/20 08:03:49;;;;;;;5.67;3.60;;;21.70;58.50;;;;;;4932064;29;20452;-66
2023/01/20 08:06:19;;;;;;;3.53;3.23;;;21.70;58.30;;;;;;4925913;29;20472;-66
2023/01/20 08:08:49;;;;;;;4.53;2.83;;;21.70;58.20;;;;;;4928514;29;20500;-66
2023/01/20 08:11:20;;;;;;;3.77;2.63;;;21.70;58.10;;;;;;4930412;29;20468;-66
2023/01/20 08:13:48;;;;;;;3.00;2.67;;;21.70;58.00;;;;;;4929934;29;20529;-66
2023/01/20 08:16:18;;;;;;;3.40;2.67;;;21.80;58.00;;;;;;4929545;29;20472;-66
2023/01/20 08:18:47;;;;;;;5.17;2.97;;;21.80;57.90;;;;;;4922548;29;20978;-66
2023/01/20 08:21:20;;;;;;;3.30;2.37;;;21.80;57.90;;;;;;4928699;29;20979;-67
2023/01/20 08:23:50;;;;;;;2.73;2.53;;;21.80;57.90;;;;;;4931005;29;20456;-67
2023/01/20 08:26:18;;;;;;;3.27;2.57;;;21.80;57.90;;;;;;4932676;29;20467;-67
2023/01/20 08:28:47;;;;;;;4.47;3.30;;;21.80;57.80;;;;;;4932823;29;20456;-66
2023/01/20 08:31:18;;;;;;;2.90;2.53;;;21.80;57.80;;;;;;4927340;29;20951;-66
2023/01/20 08:33:47;;;;;;;6.10;3.23;;;21.80;57.70;;;;;;4929686;29;21024;-67
2023/01/20 08:36:17;;;;;;;3.03;2.77;;;21.80;57.70;;;;;;4925811;29;20940;-66
2023/01/20 08:38:46;;;;;;;3.10;2.30;;;21.80;57.70;;;;;;4928277;29;20468;-66
2023/01/20 08:41:18;;;;;;;2.93;2.57;;;21.80;57.60;;;;;;4929109;29;20559;-66
2023/01/20 08:43:46;;;;;;;2.63;2.40;;;21.80;57.50;;;;;;4924935;29;20467;-66
2023/01/20 08:46:16;;;;;;;2.60;2.40;;;21.80;57.50;;;;;;4926891;29;20460;-66
2023/01/20 08:48:45;;;;;;;6.73;3.17;;;21.80;57.40;;;;;;4928026;29;20467;-66
2023/01/20 08:51:15;;;;;;;6.87;3.13;;;21.80;57.40;;;;;;4929875;29;20569;-66
2023/01/20 08:53:44;;;;;;;3.00;2.53;;;21.80;57.30;;;;;;4930152;29;20443;-67
2023/01/20 08:56:13;;;;;;;3.07;2.63;;;21.80;57.20;;;;;;4924002;29;20496;-66
2023/01/20 08:58:43;;;;;;;2.77;2.57;;;21.80;57.10;;;;;;4925547;29;20453;-66
2023/01/20 09:01:13;;;;;;;1.90;1.80;;;21.80;57.00;;;;;;4929179;29;20487;-66
2023/01/20 09:03:41;;;;;;;2.33;2.13;;;21.80;57.00;;;;;;4928136;29;20507;-66
2023/01/20 09:06:26;;;;;;;3.17;2.73;;;21.90;56.90;;;;;;4929058;29;20547;-66
2023/01/20 09:08:54;;;;;;;4.33;3.47;;;21.90;56.90;;;;;;4930085;29;20459;-66
2023/01/20 09:11:25;;;;;;;2.40;2.20;;;21.90;56.80;;;;;;4929853;29;20862;-66
2023/01/20 09:13:56;;;;;;;3.10;2.60;;;21.90;56.80;;;;;;4925987;29;20594;-66
2023/01/20 09:16:24;;;;;;;3.07;2.77;;;22.00;56.70;;;;;;4928821;29;20957;-66
2023/01/20 09:18:52;;;;;;;2.93;2.73;;;22.00;56.60;;;;;;4926800;29;20579;-67
2023/01/20 09:21:20;;;;;;;3.30;2.87;;;22.00;56.60;;;;;;4928828;29;20484;-66
2023/01/20 09:23:48;;;;;;;2.73;2.53;;;22.00;56.50;;;;;;4929627;29;20469;-66
2023/01/20 09:26:16;;;;;;;3.80;2.90;;;22.00;56.50;;;;;;4927093;29;20868;-66
2023/01/20 09:29:07;;;;;;;3.03;2.80;;;22.00;56.50;;;;;;4926446;29;20936;-66
2023/01/20 09:31:38;;;;;;;2.40;2.30;;;22.00;56.50;;;;;;4930470;29;20845;-66
2023/01/20 09:34:06;;;;;;;4.90;2.23;;;22.00;56.50;;;;;;4927919;29;20459;-66
2023/01/20 09:36:34;;;;;;;4.53;2.70;;;22.00;56.50;;;;;;4929267;29;20452;-66
2023/01/20 09:44:49;;;;;;;4.00;2.57;;;22.00;56.50;;;;;;4925332;29;20468;-66
2023/01/20 09:47:27;;;;;;;3.70;3.10;;;21.90;56.60;;;;;;4929285;29;20870;-66
2023/01/20 09:53:31;;;;;;;2.57;2.37;;;21.90;56.50;;;;;;4929475;29;20529;-66
2023/01/20 09:56:04;;;;;;;4.00;2.67;;;21.90;56.50;;;;;;4930215;29;20510;-66
2023/01/20 09:58:40;;;;;;;3.23;2.80;;;22.00;56.30;;;;;;4924794;29;20461;-60
2023/01/20 10:01:16;;;;;;;3.27;3.00;;;22.00;56.20;;;;;;4925989;29;20501;-60
2023/01/20 10:03:52;;;;;;;3.37;2.80;;;22.00;56.30;;;;;;4928220;29;21002;-60
2023/01/20 10:06:25;;;;;;;2.67;2.47;;;22.00;56.30;;;;;;4928388;29;20459;-60
2023/01/20 10:08:59;;;;;;;3.00;2.63;;;22.00;56.30;;;;;;4922277;29;20944;-60
2023/01/20 10:11:37;;;;;;;3.07;2.87;;;22.10;56.20;;;;;;4927308;29;20456;-61
2023/01/20 10:14:11;;;;;;;3.63;2.87;;;22.10;56.20;;;;;;4923751;29;20487;-60
2023/01/20 10:16:45;;;;;;;3.37;3.07;;;22.10;56.10;;;;;;4927481;29;20577;-61
2023/01/20 10:19:18;;;;;;;3.15;2.95;;;22.20;56.00;;;;;;4928665;29;20510;-63
2023/01/20 10:21:52;;;;;;;3.23;2.70;;;22.20;56.00;;;;;;4927423;29;20220;-62
2023/01/20 10:24:24;;;;;;;2.60;2.50;;;22.20;55.90;;;;;;4926301;29;20503;-62
2023/01/20 10:26:56;;;;;;;2.67;2.50;;;22.20;55.80;;;;;;4924945;29;20476;-64
2023/01/20 10:29:30;;;;;;;2.50;2.30;;;22.20;55.70;;;;;;4923156;29;20456;-61
2023/01/20 10:32:01;;;;;;;2.80;2.60;;;22.20;55.60;;;;;;4927618;29;20463;-69
2023/01/20 10:34:40;;;;;;;3.50;3.20;;;22.20;55.60;;;;;;4927640;29;20472;-64
2023/01/20 10:37:11;;;;;;;2.87;2.67;;;22.30;55.50;;;;;;4927867;29;20465;-66
2023/01/20 10:39:46;;;;;;;2.60;2.40;;;22.30;55.30;;;;;;4928377;29;20979;-63
2023/01/20 10:42:16;;;;;;;4.13;2.73;;;22.20;55.30;;;;;;4927593;29;20581;-65
2023/01/20 10:44:47;;;;;;;9.13;3.40;;;22.20;55.30;;;;;;4928226;29;20464;-65
2023/01/20 10:47:41;;;;;;;10.93;2.90;;;22.20;55.40;;;;;;4924107;29;20501;-65
2023/01/20 10:50:33;;;;;;;4.33;3.07;;;22.20;55.60;;;;;;4923662;29;20484;-65
2023/01/20 10:53:21;;;;;;;4.30;3.27;;;22.20;55.60;;;;;;4928208;29;20464;-65
2023/01/20 10:56:02;;;;;;;2.90;2.70;;;22.20;55.60;;;;;;4930040;29;20563;-66
2023/01/20 10:58:33;;;;;;;3.10;2.90;;;22.20;55.60;;;;;;4935525;29;20472;-65
2023/01/20 11:01:05;;;;;;;3.10;2.50;;;22.20;55.60;;;;;;4931018;29;20528;-66
2023/01/20 11:03:39;;;;;;;2.37;2.27;;;22.20;55.60;;;;;;4923132;29;20586;-66
2023/01/20 11:06:10;;;;;;;2.90;2.20;;;22.20;55.60;;;;;;4926232;29;20508;-66
2023/01/20 11:08:39;;;;;;;2.93;2.63;;;22.20;55.40;;;;;;4929924;29;21003;-66
2023/01/20 11:11:11;;;;;;;3.03;2.83;;;22.20;55.30;;;;;;4931623;29;20539;-66
2023/01/20 11:13:40;;;;;;;4.00;2.77;;;22.20;55.30;;;;;;4932719;29;20559;-66
2023/01/20 11:16:13;;;;;;;2.77;2.50;;;22.20;55.30;;;;;;4931672;29;20547;-66
2023/01/20 11:18:54;;;;;;;4.40;2.70;;;22.20;55.20;;;;;;4923687;29;20458;-66
2023/01/20 11:21:24;;;;;;;2.80;2.50;;;22.20;55.20;;;;;;4931008;29;20460;-66
2023/01/20 11:23:56;;;;;;;2.73;2.30;;;22.20;55.20;;;;;;4927506;29;20475;-65
2023/01/20 11:26:26;;;;;;;2.90;2.70;;;22.20;55.10;;;;;;4930813;29;20460;-66
2023/01/20 11:28:57;;;;;;;3.23;2.93;;;22.30;55.10;;;;;;4930037;29;20958;-66
2023/01/20 11:31:41;;;;;;;2.77;2.57;;;22.30;55.10;;;;;;4929590;29;20564;-66
2023/01/20 11:34:24;;;;;;;4.70;2.87;;;22.30;55.00;;;;;;4923936;29;20488;-66
2023/01/20 11:37:16;;;;;;;3.03;2.60;;;22.30;55.00;;;;;;4930368;29;20449;-66
2023/01/20 11:39:59;;;;;;;3.07;2.83;;;22.30;55.00;;;;;;4928986;29;20515;-65
2023/01/20 11:42:28;;;;;;;3.10;2.80;;;22.30;54.90;;;;;;4930393;29;20543;-66
2023/01/20 11:44:58;;;;;;;2.70;2.50;;;22.30;54.90;;;;;;4930382;29;20583;-66
2023/01/20 11:47:58;;;;;;;3.00;2.47;;;22.30;55.00;;;;;;4929289;29;20465;-65
2023/01/20 11:50:32;;;;;;;5.07;3.13;;;22.30;55.00;;;;;;4930000;29;20498;-65
2023/01/20 11:53:17;;;;;;;4.40;2.80;;;22.30;55.00;;;;;;4928701;29;20960;-66
2023/01/20 11:55:51;;;;;;;5.80;4.37;;;22.20;54.90;;;;;;4930384;29;21155;-65
2023/01/20 11:58:21;;;;;;;5.00;4.50;;;22.20;54.80;;;;;;4928098;29;20471;-65
2023/01/20 12:00:52;;;;;;;4.93;4.10;;;22.20;55.10;;;;;;4927160;29;20541;-65
2023/01/20 12:04:03;;;;;;;6.70;5.00;;;22.10;54.90;;;;;;4926515;29;20487;-66
2023/01/20 12:06:37;;;;;;;6.23;5.00;;;22.10;55.10;;;;;;4876133;29;20460;-68
2023/01/20 12:09:10;;;;;;;6.33;5.13;;;22.10;54.80;;;;;;4882484;29;20544;-66
2023/01/20 12:11:42;;;;;;;6.10;4.77;;;22.10;54.70;;;;;;4907092;29;20472;-66
2023/01/20 12:14:27;;;;;;;9.07;4.90;;;22.10;54.90;;;;;;4915729;29;20666;-66
2023/01/20 12:17:13;;;;;;;7.30;4.77;;;22.00;55.00;;;;;;4936751;28;20492;-66
2023/01/20 12:19:55;;;;;;;6.50;4.30;;;22.00;55.20;;;;;;4923348;29;20500;-66
2023/01/20 12:22:31;;;;;;;4.87;4.37;;;22.00;55.30;;;;;;4926453;29;20475;-69
2023/01/20 12:25:13;;;;;;;4.73;4.33;;;22.10;55.20;;;;;;4933302;29;20992;-65
2023/01/20 12:27:46;;;;;;;10.47;3.87;;;22.10;55.20;;;;;;4922876;29;20552;-65
2023/01/20 12:30:36;;;;;;;5.67;5.17;;;22.10;55.10;;;;;;4930645;29;20991;-66
2023/01/20 12:33:05;;;;;;;4.70;4.30;;;22.10;55.00;;;;;;4933510;29;20487;-66
2023/01/20 12:35:42;;;;;;;5.23;4.40;;;22.10;54.90;;;;;;4929562;29;20466;-65
2023/01/20 12:38:18;;;;;;;6.33;4.87;;;22.10;54.90;;;;;;4932526;29;20446;-66
2023/01/20 12:40:49;;;;;;;8.10;4.57;;;22.10;54.80;;;;;;4926937;29;20484;-66
2023/01/20 12:43:38;;;;;;;8.40;4.00;;;22.10;54.70;;;;;;4926359;29;20485;-66
2023/01/20 12:46:35;;;;;;;5.50;4.90;;;22.20;54.60;;;;;;4929759;29;20538;-66
2023/01/20 12:49:33;;;;;;;6.90;4.73;;;22.20;54.50;;;;;;4930317;29;20554;-66
2023/01/20 12:52:35;;;;;;;5.10;4.20;;;22.20;54.50;;;;;;4928293;29;20451;-66
2023/01/20 12:55:22;;;;;;;4.33;4.03;;;22.20;54.40;;;;;;4922899;29;20551;-65
2023/01/20 12:58:03;;;;;;;4.30;3.90;;;22.10;54.40;;;;;;4929503;29;20465;-66
2023/01/20 13:00:53;;;;;;;5.17;4.30;;;22.10;54.30;;;;;;4928936;29;20455;-65
2023/01/20 13:03:38;;;;;;;5.53;4.97;;;22.10;54.30;;;;;;4930340;29;20487;-66
2023/01/20 13:06:28;;;;;;;6.83;4.57;;;22.10;54.20;;;;;;4930123;29;20518;-66
2023/01/20 13:09:07;;;;;;;8.07;4.33;;;22.10;54.20;;;;;;4930817;29;20496;-67
2023/01/20 13:11:49;;;;;;;5.40;4.30;;;22.10;54.10;;;;;;4924511;29;20973;-66
2023/01/20 13:14:21;;;;;;;6.03;4.10;;;22.10;54.10;;;;;;4923362;29;20586;-66
2023/01/20 13:16:57;;;;;;;4.10;3.80;;;22.10;54.10;;;;;;4926525;29;20551;-66
2023/01/20 13:19:30;;;;;;;4.50;4.10;;;22.00;54.10;;;;;;4925287;29;20464;-66
2023/01/20 13:22:09;;;;;;;5.47;4.50;;;22.00;54.10;;;;;;4925653;29;20610;-66
2023/01/20 13:24:41;;;;;;;8.70;4.03;;;22.00;54.20;;;;;;4921263;29;20571;-66